<?xml version="1.0" encoding="UTF-8" standalone="no" ?>
<gpx xmlns="http://www.topografix.com/GPX/1/1" xmlns:xsi="http://www.w3.org/2001/XMLSchema-instance" xsi:schemaLocation="http://www.topografix.com/GPX/1/1 http://www.topografix.com/GPX/1/1/gpx.xsd" version="1.1" creator="VisuGPX - https://www.visugpx.com">
  <metadata>
    <name>FINLANDE - PEDESTRE - IVALO - Piste des gardes-frontière.</name>
    <desc><![CDATA[Boucle depuis l'hôtel Ivalo par Rajavartiosto Valaistu en empruntant la piste éclairée puis la piste non-éclairée des gardes-frontière]]></desc>
  </metadata>
  <trk>
    <name><![CDATA[ACTIVE LOG 005]]></name>
    <trkseg>
      <trkpt lat="68.64947" lon="27.5429">
        <ele>136.16394</ele>
        <time>2014-03-17T12:28:40Z</time>
      </trkpt>
      <trkpt lat="68.64948" lon="27.54291">
        <ele>139.047852</ele>
        <time>2014-03-17T12:28:41Z</time>
      </trkpt>
      <trkpt lat="68.64948" lon="27.54291">
        <ele>137.125244</ele>
        <time>2014-03-17T12:28:42Z</time>
      </trkpt>
      <trkpt lat="68.6495" lon="27.54293">
        <ele>135.683105</ele>
        <time>2014-03-17T12:28:45Z</time>
      </trkpt>
      <trkpt lat="68.64953" lon="27.54296">
        <ele>132.318604</ele>
        <time>2014-03-17T12:28:49Z</time>
      </trkpt>
      <trkpt lat="68.64961" lon="27.54289">
        <ele>132.318604</ele>
        <time>2014-03-17T12:28:50Z</time>
      </trkpt>
      <trkpt lat="68.64985" lon="27.54278">
        <ele>130.876709</ele>
        <time>2014-03-17T12:29:07Z</time>
      </trkpt>
      <trkpt lat="68.64997" lon="27.54274">
        <ele>131.3573</ele>
        <time>2014-03-17T12:29:21Z</time>
      </trkpt>
      <trkpt lat="68.65006" lon="27.54272">
        <ele>130.876709</ele>
        <time>2014-03-17T12:29:31Z</time>
      </trkpt>
      <trkpt lat="68.65008" lon="27.54273">
        <ele>131.3573</ele>
        <time>2014-03-17T12:29:33Z</time>
      </trkpt>
      <trkpt lat="68.65012" lon="27.54274">
        <ele>128.473389</ele>
        <time>2014-03-17T12:29:37Z</time>
      </trkpt>
      <trkpt lat="68.65012" lon="27.54275">
        <ele>132.318604</ele>
        <time>2014-03-17T12:29:38Z</time>
      </trkpt>
      <trkpt lat="68.65013" lon="27.54276">
        <ele>132.318604</ele>
        <time>2014-03-17T12:29:39Z</time>
      </trkpt>
      <trkpt lat="68.65015" lon="27.54278">
        <ele>130.876709</ele>
        <time>2014-03-17T12:29:41Z</time>
      </trkpt>
      <trkpt lat="68.6502" lon="27.54293">
        <ele>130.876709</ele>
        <time>2014-03-17T12:29:49Z</time>
      </trkpt>
      <trkpt lat="68.65025" lon="27.54333">
        <ele>131.837891</ele>
        <time>2014-03-17T12:30:04Z</time>
      </trkpt>
      <trkpt lat="68.65023" lon="27.54341">
        <ele>131.837891</ele>
        <time>2014-03-17T12:30:08Z</time>
      </trkpt>
      <trkpt lat="68.64999" lon="27.54344">
        <ele>131.3573</ele>
        <time>2014-03-17T12:30:31Z</time>
      </trkpt>
      <trkpt lat="68.64978" lon="27.54346">
        <ele>131.3573</ele>
        <time>2014-03-17T12:30:52Z</time>
      </trkpt>
      <trkpt lat="68.6496" lon="27.54348">
        <ele>131.3573</ele>
        <time>2014-03-17T12:31:10Z</time>
      </trkpt>
      <trkpt lat="68.64942" lon="27.5435">
        <ele>131.3573</ele>
        <time>2014-03-17T12:31:31Z</time>
      </trkpt>
      <trkpt lat="68.64941" lon="27.54352">
        <ele>130.876709</ele>
        <time>2014-03-17T12:31:38Z</time>
      </trkpt>
      <trkpt lat="68.64941" lon="27.5434">
        <ele>131.3573</ele>
        <time>2014-03-17T12:31:57Z</time>
      </trkpt>
      <trkpt lat="68.64942" lon="27.54329">
        <ele>131.3573</ele>
        <time>2014-03-17T12:32:01Z</time>
      </trkpt>
      <trkpt lat="68.64944" lon="27.5431">
        <ele>131.3573</ele>
        <time>2014-03-17T12:32:11Z</time>
      </trkpt>
      <trkpt lat="68.64945" lon="27.54298">
        <ele>131.3573</ele>
        <time>2014-03-17T12:32:21Z</time>
      </trkpt>
      <trkpt lat="68.64947" lon="27.54276">
        <ele>131.837891</ele>
        <time>2014-03-17T12:32:33Z</time>
      </trkpt>
      <trkpt lat="68.64955" lon="27.54253">
        <ele>130.395996</ele>
        <time>2014-03-17T12:32:48Z</time>
      </trkpt>
      <trkpt lat="68.64966" lon="27.54242">
        <ele>130.876709</ele>
        <time>2014-03-17T12:33:02Z</time>
      </trkpt>
      <trkpt lat="68.64967" lon="27.5424">
        <ele>130.876709</ele>
        <time>2014-03-17T12:33:04Z</time>
      </trkpt>
      <trkpt lat="68.6498" lon="27.54229">
        <ele>130.876709</ele>
        <time>2014-03-17T12:33:20Z</time>
      </trkpt>
      <trkpt lat="68.64988" lon="27.54259">
        <ele>130.876709</ele>
        <time>2014-03-17T12:33:35Z</time>
      </trkpt>
      <trkpt lat="68.64989" lon="27.54264">
        <ele>130.876709</ele>
        <time>2014-03-17T12:33:38Z</time>
      </trkpt>
      <trkpt lat="68.64992" lon="27.54283">
        <ele>130.876709</ele>
        <time>2014-03-17T12:33:53Z</time>
      </trkpt>
      <trkpt lat="68.64992" lon="27.5429">
        <ele>130.876709</ele>
        <time>2014-03-17T12:34:15Z</time>
      </trkpt>
      <trkpt lat="68.64994" lon="27.5429">
        <ele>130.395996</ele>
        <time>2014-03-17T12:34:37Z</time>
      </trkpt>
      <trkpt lat="68.64995" lon="27.5429">
        <ele>130.395996</ele>
        <time>2014-03-17T12:34:57Z</time>
      </trkpt>
      <trkpt lat="68.64996" lon="27.54278">
        <ele>130.395996</ele>
        <time>2014-03-17T12:35:12Z</time>
      </trkpt>
      <trkpt lat="68.64997" lon="27.54286">
        <ele>130.876709</ele>
        <time>2014-03-17T12:35:26Z</time>
      </trkpt>
      <trkpt lat="68.64998" lon="27.54288">
        <ele>130.876709</ele>
        <time>2014-03-17T12:35:27Z</time>
      </trkpt>
      <trkpt lat="68.65007" lon="27.54293">
        <ele>130.395996</ele>
        <time>2014-03-17T12:35:35Z</time>
      </trkpt>
      <trkpt lat="68.65023" lon="27.54302">
        <ele>130.876709</ele>
        <time>2014-03-17T12:35:51Z</time>
      </trkpt>
      <trkpt lat="68.65027" lon="27.54335">
        <ele>131.837891</ele>
        <time>2014-03-17T12:36:04Z</time>
      </trkpt>
      <trkpt lat="68.65008" lon="27.5434">
        <ele>132.318604</ele>
        <time>2014-03-17T12:36:22Z</time>
      </trkpt>
      <trkpt lat="68.64982" lon="27.54345">
        <ele>130.876709</ele>
        <time>2014-03-17T12:36:44Z</time>
      </trkpt>
      <trkpt lat="68.64955" lon="27.54348">
        <ele>131.837891</ele>
        <time>2014-03-17T12:37:07Z</time>
      </trkpt>
      <trkpt lat="68.64927" lon="27.54353">
        <ele>131.837891</ele>
        <time>2014-03-17T12:37:30Z</time>
      </trkpt>
      <trkpt lat="68.64908" lon="27.54353">
        <ele>131.837891</ele>
        <time>2014-03-17T12:37:46Z</time>
      </trkpt>
      <trkpt lat="68.64882" lon="27.54353">
        <ele>131.3573</ele>
        <time>2014-03-17T12:38:06Z</time>
      </trkpt>
      <trkpt lat="68.64853" lon="27.54352">
        <ele>131.3573</ele>
        <time>2014-03-17T12:38:30Z</time>
      </trkpt>
      <trkpt lat="68.64829" lon="27.54353">
        <ele>131.837891</ele>
        <time>2014-03-17T12:38:50Z</time>
      </trkpt>
      <trkpt lat="68.64797" lon="27.54352">
        <ele>131.837891</ele>
        <time>2014-03-17T12:39:15Z</time>
      </trkpt>
      <trkpt lat="68.64765" lon="27.54348">
        <ele>131.837891</ele>
        <time>2014-03-17T12:39:41Z</time>
      </trkpt>
      <trkpt lat="68.64733" lon="27.54344">
        <ele>131.3573</ele>
        <time>2014-03-17T12:40:07Z</time>
      </trkpt>
      <trkpt lat="68.64704" lon="27.54339">
        <ele>131.3573</ele>
        <time>2014-03-17T12:40:31Z</time>
      </trkpt>
      <trkpt lat="68.64677" lon="27.5434">
        <ele>131.837891</ele>
        <time>2014-03-17T12:40:55Z</time>
      </trkpt>
      <trkpt lat="68.64678" lon="27.54344">
        <ele>131.837891</ele>
        <time>2014-03-17T12:41:03Z</time>
      </trkpt>
      <trkpt lat="68.64677" lon="27.5436">
        <ele>131.837891</ele>
        <time>2014-03-17T12:41:11Z</time>
      </trkpt>
      <trkpt lat="68.64676" lon="27.54392">
        <ele>131.837891</ele>
        <time>2014-03-17T12:41:21Z</time>
      </trkpt>
      <trkpt lat="68.64665" lon="27.54412">
        <ele>131.3573</ele>
        <time>2014-03-17T12:41:33Z</time>
      </trkpt>
      <trkpt lat="68.64655" lon="27.54494">
        <ele>130.876709</ele>
        <time>2014-03-17T12:41:58Z</time>
      </trkpt>
      <trkpt lat="68.64642" lon="27.54554">
        <ele>130.876709</ele>
        <time>2014-03-17T12:42:20Z</time>
      </trkpt>
      <trkpt lat="68.64625" lon="27.54612">
        <ele>130.876709</ele>
        <time>2014-03-17T12:42:43Z</time>
      </trkpt>
      <trkpt lat="68.64617" lon="27.54634">
        <ele>130.876709</ele>
        <time>2014-03-17T12:42:58Z</time>
      </trkpt>
      <trkpt lat="68.64607" lon="27.54672">
        <ele>130.876709</ele>
        <time>2014-03-17T12:43:17Z</time>
      </trkpt>
      <trkpt lat="68.64593" lon="27.54725">
        <ele>130.876709</ele>
        <time>2014-03-17T12:43:38Z</time>
      </trkpt>
      <trkpt lat="68.64576" lon="27.54784">
        <ele>131.837891</ele>
        <time>2014-03-17T12:44:00Z</time>
      </trkpt>
      <trkpt lat="68.64559" lon="27.54843">
        <ele>131.837891</ele>
        <time>2014-03-17T12:44:23Z</time>
      </trkpt>
      <trkpt lat="68.64543" lon="27.54898">
        <ele>132.318604</ele>
        <time>2014-03-17T12:44:44Z</time>
      </trkpt>
      <trkpt lat="68.64526" lon="27.54961">
        <ele>132.318604</ele>
        <time>2014-03-17T12:45:07Z</time>
      </trkpt>
      <trkpt lat="68.64506" lon="27.55025">
        <ele>132.799316</ele>
        <time>2014-03-17T12:45:31Z</time>
      </trkpt>
      <trkpt lat="68.64491" lon="27.55086">
        <ele>132.799316</ele>
        <time>2014-03-17T12:45:53Z</time>
      </trkpt>
      <trkpt lat="68.64473" lon="27.55144">
        <ele>133.760498</ele>
        <time>2014-03-17T12:46:14Z</time>
      </trkpt>
      <trkpt lat="68.64455" lon="27.5521">
        <ele>132.799316</ele>
        <time>2014-03-17T12:46:37Z</time>
      </trkpt>
      <trkpt lat="68.64436" lon="27.55275">
        <ele>133.760498</ele>
        <time>2014-03-17T12:47:01Z</time>
      </trkpt>
      <trkpt lat="68.64419" lon="27.55339">
        <ele>133.279907</ele>
        <time>2014-03-17T12:47:24Z</time>
      </trkpt>
      <trkpt lat="68.64402" lon="27.55394">
        <ele>133.279907</ele>
        <time>2014-03-17T12:47:45Z</time>
      </trkpt>
      <trkpt lat="68.64383" lon="27.55459">
        <ele>132.799316</ele>
        <time>2014-03-17T12:48:09Z</time>
      </trkpt>
      <trkpt lat="68.64367" lon="27.55513">
        <ele>132.799316</ele>
        <time>2014-03-17T12:48:29Z</time>
      </trkpt>
      <trkpt lat="68.64352" lon="27.55573">
        <ele>131.3573</ele>
        <time>2014-03-17T12:48:50Z</time>
      </trkpt>
      <trkpt lat="68.64333" lon="27.55631">
        <ele>132.799316</ele>
        <time>2014-03-17T12:49:12Z</time>
      </trkpt>
      <trkpt lat="68.64312" lon="27.55692">
        <ele>131.837891</ele>
        <time>2014-03-17T12:49:35Z</time>
      </trkpt>
      <trkpt lat="68.64294" lon="27.55748">
        <ele>131.3573</ele>
        <time>2014-03-17T12:49:56Z</time>
      </trkpt>
      <trkpt lat="68.64275" lon="27.55812">
        <ele>131.837891</ele>
        <time>2014-03-17T12:50:20Z</time>
      </trkpt>
      <trkpt lat="68.64262" lon="27.55886">
        <ele>132.318604</ele>
        <time>2014-03-17T12:50:42Z</time>
      </trkpt>
      <trkpt lat="68.64261" lon="27.55891">
        <ele>133.760498</ele>
        <time>2014-03-17T12:50:44Z</time>
      </trkpt>
      <trkpt lat="68.64241" lon="27.55953">
        <ele>134.241211</ele>
        <time>2014-03-17T12:51:08Z</time>
      </trkpt>
      <trkpt lat="68.64223" lon="27.56016">
        <ele>133.279907</ele>
        <time>2014-03-17T12:51:30Z</time>
      </trkpt>
      <trkpt lat="68.64204" lon="27.56079">
        <ele>133.760498</ele>
        <time>2014-03-17T12:51:54Z</time>
      </trkpt>
      <trkpt lat="68.64184" lon="27.56142">
        <ele>134.721924</ele>
        <time>2014-03-17T12:52:18Z</time>
      </trkpt>
      <trkpt lat="68.64169" lon="27.56207">
        <ele>136.644653</ele>
        <time>2014-03-17T12:52:41Z</time>
      </trkpt>
      <trkpt lat="68.64153" lon="27.56262">
        <ele>138.567261</ele>
        <time>2014-03-17T12:53:03Z</time>
      </trkpt>
      <trkpt lat="68.6415" lon="27.56269">
        <ele>139.047852</ele>
        <time>2014-03-17T12:53:06Z</time>
      </trkpt>
      <trkpt lat="68.64134" lon="27.56323">
        <ele>140.970459</ele>
        <time>2014-03-17T12:53:28Z</time>
      </trkpt>
      <trkpt lat="68.64109" lon="27.56377">
        <ele>141.931763</ele>
        <time>2014-03-17T12:53:54Z</time>
      </trkpt>
      <trkpt lat="68.64084" lon="27.56422">
        <ele>143.85437</ele>
        <time>2014-03-17T12:54:18Z</time>
      </trkpt>
      <trkpt lat="68.6406" lon="27.56471">
        <ele>145.296387</ele>
        <time>2014-03-17T12:54:43Z</time>
      </trkpt>
      <trkpt lat="68.64034" lon="27.56529">
        <ele>145.7771</ele>
        <time>2014-03-17T12:55:09Z</time>
      </trkpt>
      <trkpt lat="68.64013" lon="27.5658">
        <ele>145.296387</ele>
        <time>2014-03-17T12:55:33Z</time>
      </trkpt>
      <trkpt lat="68.63996" lon="27.56635">
        <ele>145.7771</ele>
        <time>2014-03-17T12:55:55Z</time>
      </trkpt>
      <trkpt lat="68.63971" lon="27.56688">
        <ele>146.257813</ele>
        <time>2014-03-17T12:56:20Z</time>
      </trkpt>
      <trkpt lat="68.63949" lon="27.56736">
        <ele>146.738403</ele>
        <time>2014-03-17T12:56:44Z</time>
      </trkpt>
      <trkpt lat="68.63926" lon="27.56785">
        <ele>146.257813</ele>
        <time>2014-03-17T12:57:08Z</time>
      </trkpt>
      <trkpt lat="68.639" lon="27.56843">
        <ele>146.738403</ele>
        <time>2014-03-17T12:57:36Z</time>
      </trkpt>
      <trkpt lat="68.63878" lon="27.5687">
        <ele>147.218994</ele>
        <time>2014-03-17T12:57:57Z</time>
      </trkpt>
      <trkpt lat="68.63851" lon="27.56877">
        <ele>148.18042</ele>
        <time>2014-03-17T12:58:20Z</time>
      </trkpt>
      <trkpt lat="68.63821" lon="27.56863">
        <ele>147.699707</ele>
        <time>2014-03-17T12:58:44Z</time>
      </trkpt>
      <trkpt lat="68.63803" lon="27.56855">
        <ele>148.18042</ele>
        <time>2014-03-17T12:58:59Z</time>
      </trkpt>
      <trkpt lat="68.63789" lon="27.5685">
        <ele>147.699707</ele>
        <time>2014-03-17T12:59:09Z</time>
      </trkpt>
      <trkpt lat="68.63781" lon="27.56846">
        <ele>147.699707</ele>
        <time>2014-03-17T12:59:15Z</time>
      </trkpt>
      <trkpt lat="68.63747" lon="27.5683">
        <ele>147.699707</ele>
        <time>2014-03-17T12:59:41Z</time>
      </trkpt>
      <trkpt lat="68.63726" lon="27.56815">
        <ele>147.699707</ele>
        <time>2014-03-17T13:00:00Z</time>
      </trkpt>
      <trkpt lat="68.63697" lon="27.56802">
        <ele>148.18042</ele>
        <time>2014-03-17T13:00:23Z</time>
      </trkpt>
      <trkpt lat="68.63668" lon="27.56792">
        <ele>148.661011</ele>
        <time>2014-03-17T13:00:47Z</time>
      </trkpt>
      <trkpt lat="68.6365" lon="27.56835">
        <ele>147.699707</ele>
        <time>2014-03-17T13:01:08Z</time>
      </trkpt>
      <trkpt lat="68.63634" lon="27.5689">
        <ele>147.699707</ele>
        <time>2014-03-17T13:01:31Z</time>
      </trkpt>
      <trkpt lat="68.63614" lon="27.56915">
        <ele>148.661011</ele>
        <time>2014-03-17T13:01:50Z</time>
      </trkpt>
      <trkpt lat="68.63594" lon="27.56958">
        <ele>146.738403</ele>
        <time>2014-03-17T13:02:12Z</time>
      </trkpt>
      <trkpt lat="68.63577" lon="27.57003">
        <ele>145.7771</ele>
        <time>2014-03-17T13:02:31Z</time>
      </trkpt>
      <trkpt lat="68.63566" lon="27.57038">
        <ele>146.257813</ele>
        <time>2014-03-17T13:02:48Z</time>
      </trkpt>
      <trkpt lat="68.63542" lon="27.57089">
        <ele>146.257813</ele>
        <time>2014-03-17T13:03:12Z</time>
      </trkpt>
      <trkpt lat="68.63515" lon="27.57082">
        <ele>147.699707</ele>
        <time>2014-03-17T13:03:35Z</time>
      </trkpt>
      <trkpt lat="68.63485" lon="27.5705">
        <ele>150.103027</ele>
        <time>2014-03-17T13:04:02Z</time>
      </trkpt>
      <trkpt lat="68.63454" lon="27.57018">
        <ele>150.583618</ele>
        <time>2014-03-17T13:04:28Z</time>
      </trkpt>
      <trkpt lat="68.63426" lon="27.56986">
        <ele>152.025757</ele>
        <time>2014-03-17T13:04:53Z</time>
      </trkpt>
      <trkpt lat="68.63402" lon="27.56966">
        <ele>151.544922</ele>
        <time>2014-03-17T13:05:14Z</time>
      </trkpt>
      <trkpt lat="68.63388" lon="27.56968">
        <ele>152.025757</ele>
        <time>2014-03-17T13:05:28Z</time>
      </trkpt>
      <trkpt lat="68.63369" lon="27.56989">
        <ele>152.986938</ele>
        <time>2014-03-17T13:05:49Z</time>
      </trkpt>
      <trkpt lat="68.63364" lon="27.56994">
        <ele>154.428955</ele>
        <time>2014-03-17T13:05:54Z</time>
      </trkpt>
      <trkpt lat="68.63347" lon="27.57018">
        <ele>153.948364</ele>
        <time>2014-03-17T13:06:12Z</time>
      </trkpt>
      <trkpt lat="68.63323" lon="27.57053">
        <ele>154.909546</ele>
        <time>2014-03-17T13:06:36Z</time>
      </trkpt>
      <trkpt lat="68.633" lon="27.57093">
        <ele>155.390259</ele>
        <time>2014-03-17T13:07:00Z</time>
      </trkpt>
      <trkpt lat="68.6328" lon="27.57133">
        <ele>155.390259</ele>
        <time>2014-03-17T13:07:21Z</time>
      </trkpt>
      <trkpt lat="68.63262" lon="27.57199">
        <ele>157.312866</ele>
        <time>2014-03-17T13:07:47Z</time>
      </trkpt>
      <trkpt lat="68.63249" lon="27.57254">
        <ele>159.235474</ele>
        <time>2014-03-17T13:08:09Z</time>
      </trkpt>
      <trkpt lat="68.63245" lon="27.57332">
        <ele>160.196899</ele>
        <time>2014-03-17T13:08:33Z</time>
      </trkpt>
      <trkpt lat="68.63245" lon="27.57409">
        <ele>160.196899</ele>
        <time>2014-03-17T13:08:55Z</time>
      </trkpt>
      <trkpt lat="68.63234" lon="27.57471">
        <ele>159.716187</ele>
        <time>2014-03-17T13:09:16Z</time>
      </trkpt>
      <trkpt lat="68.63221" lon="27.5752">
        <ele>159.716187</ele>
        <time>2014-03-17T13:09:34Z</time>
      </trkpt>
      <trkpt lat="68.63201" lon="27.57563">
        <ele>159.235474</ele>
        <time>2014-03-17T13:09:55Z</time>
      </trkpt>
      <trkpt lat="68.63182" lon="27.57588">
        <ele>158.754761</ele>
        <time>2014-03-17T13:10:12Z</time>
      </trkpt>
      <trkpt lat="68.63175" lon="27.57599">
        <ele>158.27417</ele>
        <time>2014-03-17T13:10:27Z</time>
      </trkpt>
      <trkpt lat="68.63147" lon="27.57622">
        <ele>158.27417</ele>
        <time>2014-03-17T13:10:52Z</time>
      </trkpt>
      <trkpt lat="68.63138" lon="27.5763">
        <ele>158.27417</ele>
        <time>2014-03-17T13:11:06Z</time>
      </trkpt>
      <trkpt lat="68.63109" lon="27.57649">
        <ele>156.351563</ele>
        <time>2014-03-17T13:11:30Z</time>
      </trkpt>
      <trkpt lat="68.63079" lon="27.57666">
        <ele>156.832153</ele>
        <time>2014-03-17T13:11:55Z</time>
      </trkpt>
      <trkpt lat="68.63052" lon="27.57681">
        <ele>156.351563</ele>
        <time>2014-03-17T13:12:18Z</time>
      </trkpt>
      <trkpt lat="68.63023" lon="27.57692">
        <ele>156.351563</ele>
        <time>2014-03-17T13:12:42Z</time>
      </trkpt>
      <trkpt lat="68.62995" lon="27.577">
        <ele>155.870972</ele>
        <time>2014-03-17T13:13:05Z</time>
      </trkpt>
      <trkpt lat="68.62969" lon="27.57706">
        <ele>156.832153</ele>
        <time>2014-03-17T13:13:27Z</time>
      </trkpt>
      <trkpt lat="68.62946" lon="27.57727">
        <ele>157.312866</ele>
        <time>2014-03-17T13:13:48Z</time>
      </trkpt>
      <trkpt lat="68.6292" lon="27.57753">
        <ele>158.27417</ele>
        <time>2014-03-17T13:14:12Z</time>
      </trkpt>
      <trkpt lat="68.62911" lon="27.5776">
        <ele>156.832153</ele>
        <time>2014-03-17T13:14:22Z</time>
      </trkpt>
      <trkpt lat="68.6291" lon="27.5776">
        <ele>159.716187</ele>
        <time>2014-03-17T13:14:26Z</time>
      </trkpt>
      <trkpt lat="68.62906" lon="27.57749">
        <ele>156.832153</ele>
        <time>2014-03-17T13:14:40Z</time>
      </trkpt>
      <trkpt lat="68.62905" lon="27.57751">
        <ele>157.312866</ele>
        <time>2014-03-17T13:15:01Z</time>
      </trkpt>
      <trkpt lat="68.62903" lon="27.57755">
        <ele>156.832153</ele>
        <time>2014-03-17T13:15:39Z</time>
      </trkpt>
      <trkpt lat="68.62901" lon="27.57763">
        <ele>157.312866</ele>
        <time>2014-03-17T13:16:27Z</time>
      </trkpt>
      <trkpt lat="68.62899" lon="27.57771">
        <ele>157.312866</ele>
        <time>2014-03-17T13:16:38Z</time>
      </trkpt>
      <trkpt lat="68.62888" lon="27.57777">
        <ele>157.793579</ele>
        <time>2014-03-17T13:16:53Z</time>
      </trkpt>
      <trkpt lat="68.62862" lon="27.57782">
        <ele>160.196899</ele>
        <time>2014-03-17T13:17:14Z</time>
      </trkpt>
      <trkpt lat="68.62837" lon="27.57783">
        <ele>160.67749</ele>
        <time>2014-03-17T13:17:36Z</time>
      </trkpt>
      <trkpt lat="68.6282" lon="27.57788">
        <ele>161.638916</ele>
        <time>2014-03-17T13:17:56Z</time>
      </trkpt>
      <trkpt lat="68.62811" lon="27.57791">
        <ele>162.119507</ele>
        <time>2014-03-17T13:18:11Z</time>
      </trkpt>
      <trkpt lat="68.62808" lon="27.57796">
        <ele>162.600098</ele>
        <time>2014-03-17T13:18:24Z</time>
      </trkpt>
      <trkpt lat="68.62804" lon="27.57822">
        <ele>162.119507</ele>
        <time>2014-03-17T13:18:42Z</time>
      </trkpt>
      <trkpt lat="68.62802" lon="27.57844">
        <ele>162.600098</ele>
        <time>2014-03-17T13:18:57Z</time>
      </trkpt>
      <trkpt lat="68.62802" lon="27.57866">
        <ele>163.080811</ele>
        <time>2014-03-17T13:19:12Z</time>
      </trkpt>
      <trkpt lat="68.62806" lon="27.57898">
        <ele>162.119507</ele>
        <time>2014-03-17T13:19:31Z</time>
      </trkpt>
      <trkpt lat="68.62803" lon="27.57911">
        <ele>163.080811</ele>
        <time>2014-03-17T13:19:44Z</time>
      </trkpt>
      <trkpt lat="68.62784" lon="27.5793">
        <ele>162.600098</ele>
        <time>2014-03-17T13:20:06Z</time>
      </trkpt>
      <trkpt lat="68.62772" lon="27.57934">
        <ele>164.522705</ele>
        <time>2014-03-17T13:20:22Z</time>
      </trkpt>
      <trkpt lat="68.62752" lon="27.57939">
        <ele>167.887329</ele>
        <time>2014-03-17T13:20:44Z</time>
      </trkpt>
      <trkpt lat="68.62735" lon="27.57935">
        <ele>170.771362</ele>
        <time>2014-03-17T13:21:05Z</time>
      </trkpt>
      <trkpt lat="68.62721" lon="27.57941">
        <ele>172.69397</ele>
        <time>2014-03-17T13:21:24Z</time>
      </trkpt>
      <trkpt lat="68.62702" lon="27.57981">
        <ele>175.577881</ele>
        <time>2014-03-17T13:21:49Z</time>
      </trkpt>
      <trkpt lat="68.62696" lon="27.58017">
        <ele>178.461914</ele>
        <time>2014-03-17T13:22:06Z</time>
      </trkpt>
      <trkpt lat="68.62689" lon="27.58045">
        <ele>180.384521</ele>
        <time>2014-03-17T13:22:22Z</time>
      </trkpt>
      <trkpt lat="68.62675" lon="27.5808">
        <ele>182.307129</ele>
        <time>2014-03-17T13:22:44Z</time>
      </trkpt>
      <trkpt lat="68.62666" lon="27.58093">
        <ele>182.787842</ele>
        <time>2014-03-17T13:23:00Z</time>
      </trkpt>
      <trkpt lat="68.62665" lon="27.58095">
        <ele>182.307129</ele>
        <time>2014-03-17T13:23:03Z</time>
      </trkpt>
      <trkpt lat="68.62647" lon="27.58105">
        <ele>182.787842</ele>
        <time>2014-03-17T13:23:22Z</time>
      </trkpt>
      <trkpt lat="68.62638" lon="27.58094">
        <ele>182.787842</ele>
        <time>2014-03-17T13:23:34Z</time>
      </trkpt>
      <trkpt lat="68.62623" lon="27.58059">
        <ele>183.268433</ele>
        <time>2014-03-17T13:23:54Z</time>
      </trkpt>
      <trkpt lat="68.6262" lon="27.58012">
        <ele>183.749023</ele>
        <time>2014-03-17T13:24:13Z</time>
      </trkpt>
      <trkpt lat="68.62621" lon="27.57979">
        <ele>185.671753</ele>
        <time>2014-03-17T13:24:27Z</time>
      </trkpt>
      <trkpt lat="68.62612" lon="27.5796">
        <ele>186.633179</ele>
        <time>2014-03-17T13:24:43Z</time>
      </trkpt>
      <trkpt lat="68.62607" lon="27.57956">
        <ele>185.191162</ele>
        <time>2014-03-17T13:24:49Z</time>
      </trkpt>
      <trkpt lat="68.62601" lon="27.57954">
        <ele>185.191162</ele>
        <time>2014-03-17T13:24:56Z</time>
      </trkpt>
      <trkpt lat="68.62576" lon="27.57969">
        <ele>183.749023</ele>
        <time>2014-03-17T13:25:20Z</time>
      </trkpt>
      <trkpt lat="68.62568" lon="27.57971">
        <ele>183.268433</ele>
        <time>2014-03-17T13:25:28Z</time>
      </trkpt>
      <trkpt lat="68.62564" lon="27.57969">
        <ele>183.749023</ele>
        <time>2014-03-17T13:25:32Z</time>
      </trkpt>
      <trkpt lat="68.62559" lon="27.57966">
        <ele>183.749023</ele>
        <time>2014-03-17T13:25:37Z</time>
      </trkpt>
      <trkpt lat="68.62532" lon="27.57962">
        <ele>183.749023</ele>
        <time>2014-03-17T13:26:00Z</time>
      </trkpt>
      <trkpt lat="68.6251" lon="27.57993">
        <ele>184.229858</ele>
        <time>2014-03-17T13:26:22Z</time>
      </trkpt>
      <trkpt lat="68.62484" lon="27.58011">
        <ele>184.710571</ele>
        <time>2014-03-17T13:26:46Z</time>
      </trkpt>
      <trkpt lat="68.62467" lon="27.5805">
        <ele>184.229858</ele>
        <time>2014-03-17T13:27:06Z</time>
      </trkpt>
      <trkpt lat="68.62447" lon="27.58059">
        <ele>185.191162</ele>
        <time>2014-03-17T13:27:26Z</time>
      </trkpt>
      <trkpt lat="68.62428" lon="27.58072">
        <ele>187.59436</ele>
        <time>2014-03-17T13:27:46Z</time>
      </trkpt>
      <trkpt lat="68.62428" lon="27.58074">
        <ele>188.075073</ele>
        <time>2014-03-17T13:27:47Z</time>
      </trkpt>
      <trkpt lat="68.62406" lon="27.58113">
        <ele>189.036377</ele>
        <time>2014-03-17T13:28:11Z</time>
      </trkpt>
      <trkpt lat="68.62383" lon="27.58145">
        <ele>190.478394</ele>
        <time>2014-03-17T13:28:35Z</time>
      </trkpt>
      <trkpt lat="68.62373" lon="27.5815">
        <ele>190.958984</ele>
        <time>2014-03-17T13:28:49Z</time>
      </trkpt>
      <trkpt lat="68.62358" lon="27.58151">
        <ele>192.881714</ele>
        <time>2014-03-17T13:29:04Z</time>
      </trkpt>
      <trkpt lat="68.62345" lon="27.58134">
        <ele>194.32373</ele>
        <time>2014-03-17T13:29:20Z</time>
      </trkpt>
      <trkpt lat="68.62319" lon="27.58128">
        <ele>196.726929</ele>
        <time>2014-03-17T13:29:45Z</time>
      </trkpt>
      <trkpt lat="68.6231" lon="27.58137">
        <ele>197.20752</ele>
        <time>2014-03-17T13:29:54Z</time>
      </trkpt>
      <trkpt lat="68.62294" lon="27.58158">
        <ele>199.130127</ele>
        <time>2014-03-17T13:30:12Z</time>
      </trkpt>
      <trkpt lat="68.62281" lon="27.5819">
        <ele>202.014282</ele>
        <time>2014-03-17T13:30:30Z</time>
      </trkpt>
      <trkpt lat="68.62267" lon="27.58233">
        <ele>202.014282</ele>
        <time>2014-03-17T13:30:52Z</time>
      </trkpt>
      <trkpt lat="68.62255" lon="27.5828">
        <ele>203.93689</ele>
        <time>2014-03-17T13:31:13Z</time>
      </trkpt>
      <trkpt lat="68.62239" lon="27.58301">
        <ele>205.378784</ele>
        <time>2014-03-17T13:31:32Z</time>
      </trkpt>
      <trkpt lat="68.62222" lon="27.58323">
        <ele>207.301392</ele>
        <time>2014-03-17T13:31:52Z</time>
      </trkpt>
      <trkpt lat="68.62207" lon="27.58359">
        <ele>209.224121</ele>
        <time>2014-03-17T13:32:12Z</time>
      </trkpt>
      <trkpt lat="68.62202" lon="27.58367">
        <ele>210.666016</ele>
        <time>2014-03-17T13:32:18Z</time>
      </trkpt>
      <trkpt lat="68.62196" lon="27.58382">
        <ele>211.146729</ele>
        <time>2014-03-17T13:32:26Z</time>
      </trkpt>
      <trkpt lat="68.62183" lon="27.5843">
        <ele>213.550049</ele>
        <time>2014-03-17T13:32:48Z</time>
      </trkpt>
      <trkpt lat="68.62174" lon="27.58477">
        <ele>213.550049</ele>
        <time>2014-03-17T13:33:07Z</time>
      </trkpt>
      <trkpt lat="68.62163" lon="27.58531">
        <ele>214.51123</ele>
        <time>2014-03-17T13:33:28Z</time>
      </trkpt>
      <trkpt lat="68.62157" lon="27.58571">
        <ele>214.991943</ele>
        <time>2014-03-17T13:33:44Z</time>
      </trkpt>
      <trkpt lat="68.6216" lon="27.58587">
        <ele>214.991943</ele>
        <time>2014-03-17T13:34:00Z</time>
      </trkpt>
      <trkpt lat="68.62164" lon="27.58597">
        <ele>215.472656</ele>
        <time>2014-03-17T13:34:18Z</time>
      </trkpt>
      <trkpt lat="68.62162" lon="27.58597">
        <ele>214.51123</ele>
        <time>2014-03-17T13:34:41Z</time>
      </trkpt>
      <trkpt lat="68.62163" lon="27.58603">
        <ele>214.51123</ele>
        <time>2014-03-17T13:35:04Z</time>
      </trkpt>
      <trkpt lat="68.62168" lon="27.58618">
        <ele>214.03064</ele>
        <time>2014-03-17T13:35:19Z</time>
      </trkpt>
      <trkpt lat="68.62173" lon="27.58629">
        <ele>212.108032</ele>
        <time>2014-03-17T13:35:25Z</time>
      </trkpt>
      <trkpt lat="68.62178" lon="27.58636">
        <ele>212.108032</ele>
        <time>2014-03-17T13:35:44Z</time>
      </trkpt>
      <trkpt lat="68.62182" lon="27.58638">
        <ele>211.146729</ele>
        <time>2014-03-17T13:35:49Z</time>
      </trkpt>
      <trkpt lat="68.62205" lon="27.58626">
        <ele>207.782104</ele>
        <time>2014-03-17T13:36:11Z</time>
      </trkpt>
      <trkpt lat="68.62223" lon="27.58656">
        <ele>206.820679</ele>
        <time>2014-03-17T13:36:30Z</time>
      </trkpt>
      <trkpt lat="68.62244" lon="27.58706">
        <ele>204.898071</ele>
        <time>2014-03-17T13:36:54Z</time>
      </trkpt>
      <trkpt lat="68.62264" lon="27.58749">
        <ele>202.975464</ele>
        <time>2014-03-17T13:37:15Z</time>
      </trkpt>
      <trkpt lat="68.62265" lon="27.58762">
        <ele>201.533569</ele>
        <time>2014-03-17T13:37:19Z</time>
      </trkpt>
      <trkpt lat="68.62259" lon="27.58819">
        <ele>200.572266</ele>
        <time>2014-03-17T13:37:39Z</time>
      </trkpt>
      <trkpt lat="68.62242" lon="27.58866">
        <ele>201.533569</ele>
        <time>2014-03-17T13:38:01Z</time>
      </trkpt>
      <trkpt lat="68.62222" lon="27.58921">
        <ele>202.014282</ele>
        <time>2014-03-17T13:38:27Z</time>
      </trkpt>
      <trkpt lat="68.62215" lon="27.58989">
        <ele>202.975464</ele>
        <time>2014-03-17T13:38:50Z</time>
      </trkpt>
      <trkpt lat="68.62213" lon="27.58999">
        <ele>203.93689</ele>
        <time>2014-03-17T13:38:55Z</time>
      </trkpt>
      <trkpt lat="68.62202" lon="27.59015">
        <ele>204.41748</ele>
        <time>2014-03-17T13:39:08Z</time>
      </trkpt>
      <trkpt lat="68.62193" lon="27.59031">
        <ele>204.898071</ele>
        <time>2014-03-17T13:39:19Z</time>
      </trkpt>
      <trkpt lat="68.62191" lon="27.5909">
        <ele>205.859497</ele>
        <time>2014-03-17T13:39:41Z</time>
      </trkpt>
      <trkpt lat="68.62193" lon="27.59151">
        <ele>207.782104</ele>
        <time>2014-03-17T13:40:02Z</time>
      </trkpt>
      <trkpt lat="68.62198" lon="27.59169">
        <ele>207.301392</ele>
        <time>2014-03-17T13:40:13Z</time>
      </trkpt>
      <trkpt lat="68.62219" lon="27.592">
        <ele>207.782104</ele>
        <time>2014-03-17T13:40:35Z</time>
      </trkpt>
      <trkpt lat="68.62224" lon="27.59203">
        <ele>208.262817</ele>
        <time>2014-03-17T13:40:51Z</time>
      </trkpt>
      <trkpt lat="68.62224" lon="27.59202">
        <ele>208.262817</ele>
        <time>2014-03-17T13:41:08Z</time>
      </trkpt>
      <trkpt lat="68.62236" lon="27.59192">
        <ele>206.340088</ele>
        <time>2014-03-17T13:41:26Z</time>
      </trkpt>
      <trkpt lat="68.6224" lon="27.59177">
        <ele>205.859497</ele>
        <time>2014-03-17T13:41:33Z</time>
      </trkpt>
      <trkpt lat="68.62247" lon="27.59157">
        <ele>205.378784</ele>
        <time>2014-03-17T13:41:52Z</time>
      </trkpt>
      <trkpt lat="68.62252" lon="27.59149">
        <ele>203.456177</ele>
        <time>2014-03-17T13:41:59Z</time>
      </trkpt>
      <trkpt lat="68.62268" lon="27.59119">
        <ele>200.091675</ele>
        <time>2014-03-17T13:42:19Z</time>
      </trkpt>
      <trkpt lat="68.62277" lon="27.59098">
        <ele>198.649536</ele>
        <time>2014-03-17T13:42:35Z</time>
      </trkpt>
      <trkpt lat="68.62291" lon="27.59064">
        <ele>196.726929</ele>
        <time>2014-03-17T13:42:52Z</time>
      </trkpt>
      <trkpt lat="68.62308" lon="27.59023">
        <ele>193.362305</ele>
        <time>2014-03-17T13:43:13Z</time>
      </trkpt>
      <trkpt lat="68.62323" lon="27.58989">
        <ele>191.920288</ele>
        <time>2014-03-17T13:43:31Z</time>
      </trkpt>
      <trkpt lat="68.62347" lon="27.58952">
        <ele>190.958984</ele>
        <time>2014-03-17T13:43:55Z</time>
      </trkpt>
      <trkpt lat="68.62368" lon="27.58933">
        <ele>189.036377</ele>
        <time>2014-03-17T13:44:14Z</time>
      </trkpt>
      <trkpt lat="68.6238" lon="27.58922">
        <ele>186.152466</ele>
        <time>2014-03-17T13:44:25Z</time>
      </trkpt>
      <trkpt lat="68.62405" lon="27.5891">
        <ele>183.749023</ele>
        <time>2014-03-17T13:44:47Z</time>
      </trkpt>
      <trkpt lat="68.62427" lon="27.58892">
        <ele>182.307129</ele>
        <time>2014-03-17T13:45:07Z</time>
      </trkpt>
      <trkpt lat="68.62443" lon="27.58856">
        <ele>179.423218</ele>
        <time>2014-03-17T13:45:25Z</time>
      </trkpt>
      <trkpt lat="68.6246" lon="27.58803">
        <ele>177.50061</ele>
        <time>2014-03-17T13:45:46Z</time>
      </trkpt>
      <trkpt lat="68.62467" lon="27.58782">
        <ele>177.50061</ele>
        <time>2014-03-17T13:45:54Z</time>
      </trkpt>
      <trkpt lat="68.62466" lon="27.58775">
        <ele>177.50061</ele>
        <time>2014-03-17T13:46:03Z</time>
      </trkpt>
      <trkpt lat="68.62471" lon="27.58763">
        <ele>177.50061</ele>
        <time>2014-03-17T13:46:26Z</time>
      </trkpt>
      <trkpt lat="68.62492" lon="27.5872">
        <ele>177.02002</ele>
        <time>2014-03-17T13:46:49Z</time>
      </trkpt>
      <trkpt lat="68.62507" lon="27.58703">
        <ele>176.058594</ele>
        <time>2014-03-17T13:47:07Z</time>
      </trkpt>
      <trkpt lat="68.62525" lon="27.5869">
        <ele>177.02002</ele>
        <time>2014-03-17T13:47:25Z</time>
      </trkpt>
      <trkpt lat="68.62547" lon="27.58682">
        <ele>176.058594</ele>
        <time>2014-03-17T13:47:45Z</time>
      </trkpt>
      <trkpt lat="68.62569" lon="27.5868">
        <ele>176.539307</ele>
        <time>2014-03-17T13:48:05Z</time>
      </trkpt>
      <trkpt lat="68.6258" lon="27.58672">
        <ele>177.02002</ele>
        <time>2014-03-17T13:48:18Z</time>
      </trkpt>
      <trkpt lat="68.62599" lon="27.58652">
        <ele>177.02002</ele>
        <time>2014-03-17T13:48:38Z</time>
      </trkpt>
      <trkpt lat="68.62617" lon="27.58629">
        <ele>178.461914</ele>
        <time>2014-03-17T13:48:58Z</time>
      </trkpt>
      <trkpt lat="68.62632" lon="27.58616">
        <ele>175.09729</ele>
        <time>2014-03-17T13:49:14Z</time>
      </trkpt>
      <trkpt lat="68.62652" lon="27.586">
        <ele>175.09729</ele>
        <time>2014-03-17T13:49:35Z</time>
      </trkpt>
      <trkpt lat="68.6267" lon="27.5856">
        <ele>176.058594</ele>
        <time>2014-03-17T13:49:55Z</time>
      </trkpt>
      <trkpt lat="68.62689" lon="27.58532">
        <ele>175.09729</ele>
        <time>2014-03-17T13:50:15Z</time>
      </trkpt>
      <trkpt lat="68.62713" lon="27.58517">
        <ele>173.655273</ele>
        <time>2014-03-17T13:50:37Z</time>
      </trkpt>
      <trkpt lat="68.62733" lon="27.585">
        <ele>172.69397</ele>
        <time>2014-03-17T13:50:55Z</time>
      </trkpt>
      <trkpt lat="68.62753" lon="27.58487">
        <ele>170.290649</ele>
        <time>2014-03-17T13:51:14Z</time>
      </trkpt>
      <trkpt lat="68.62774" lon="27.58482">
        <ele>167.887329</ele>
        <time>2014-03-17T13:51:34Z</time>
      </trkpt>
      <trkpt lat="68.62795" lon="27.58483">
        <ele>166.445313</ele>
        <time>2014-03-17T13:51:52Z</time>
      </trkpt>
      <trkpt lat="68.62817" lon="27.58484">
        <ele>164.042114</ele>
        <time>2014-03-17T13:52:11Z</time>
      </trkpt>
      <trkpt lat="68.62841" lon="27.58478">
        <ele>163.080811</ele>
        <time>2014-03-17T13:52:30Z</time>
      </trkpt>
      <trkpt lat="68.62869" lon="27.58485">
        <ele>161.638916</ele>
        <time>2014-03-17T13:52:53Z</time>
      </trkpt>
      <trkpt lat="68.62891" lon="27.58488">
        <ele>159.235474</ele>
        <time>2014-03-17T13:53:12Z</time>
      </trkpt>
      <trkpt lat="68.62911" lon="27.58487">
        <ele>158.27417</ele>
        <time>2014-03-17T13:53:29Z</time>
      </trkpt>
      <trkpt lat="68.62922" lon="27.5848">
        <ele>154.909546</ele>
        <time>2014-03-17T13:53:40Z</time>
      </trkpt>
      <trkpt lat="68.62925" lon="27.58479">
        <ele>153.948364</ele>
        <time>2014-03-17T13:53:42Z</time>
      </trkpt>
      <trkpt lat="68.6295" lon="27.58483">
        <ele>151.544922</ele>
        <time>2014-03-17T13:54:05Z</time>
      </trkpt>
      <trkpt lat="68.62977" lon="27.58481">
        <ele>150.103027</ele>
        <time>2014-03-17T13:54:28Z</time>
      </trkpt>
      <trkpt lat="68.62999" lon="27.58468">
        <ele>149.622314</ele>
        <time>2014-03-17T13:54:48Z</time>
      </trkpt>
      <trkpt lat="68.63019" lon="27.58442">
        <ele>150.103027</ele>
        <time>2014-03-17T13:55:09Z</time>
      </trkpt>
      <trkpt lat="68.63021" lon="27.58438">
        <ele>150.583618</ele>
        <time>2014-03-17T13:55:26Z</time>
      </trkpt>
      <trkpt lat="68.63033" lon="27.58438">
        <ele>150.583618</ele>
        <time>2014-03-17T13:55:48Z</time>
      </trkpt>
      <trkpt lat="68.63053" lon="27.58429">
        <ele>150.583618</ele>
        <time>2014-03-17T13:56:06Z</time>
      </trkpt>
      <trkpt lat="68.63073" lon="27.58437">
        <ele>150.583618</ele>
        <time>2014-03-17T13:56:26Z</time>
      </trkpt>
      <trkpt lat="68.63093" lon="27.5847">
        <ele>150.103027</ele>
        <time>2014-03-17T13:56:46Z</time>
      </trkpt>
      <trkpt lat="68.63115" lon="27.58478">
        <ele>150.583618</ele>
        <time>2014-03-17T13:57:05Z</time>
      </trkpt>
      <trkpt lat="68.6313" lon="27.58473">
        <ele>150.583618</ele>
        <time>2014-03-17T13:57:22Z</time>
      </trkpt>
      <trkpt lat="68.63158" lon="27.58469">
        <ele>150.583618</ele>
        <time>2014-03-17T13:57:45Z</time>
      </trkpt>
      <trkpt lat="68.63183" lon="27.58448">
        <ele>150.103027</ele>
        <time>2014-03-17T13:58:06Z</time>
      </trkpt>
      <trkpt lat="68.63203" lon="27.58432">
        <ele>148.661011</ele>
        <time>2014-03-17T13:58:24Z</time>
      </trkpt>
      <trkpt lat="68.63222" lon="27.5839">
        <ele>146.257813</ele>
        <time>2014-03-17T13:58:44Z</time>
      </trkpt>
      <trkpt lat="68.63238" lon="27.5833">
        <ele>145.296387</ele>
        <time>2014-03-17T13:59:05Z</time>
      </trkpt>
      <trkpt lat="68.63254" lon="27.58282">
        <ele>143.373657</ele>
        <time>2014-03-17T13:59:24Z</time>
      </trkpt>
      <trkpt lat="68.63261" lon="27.58208">
        <ele>142.893066</ele>
        <time>2014-03-17T13:59:45Z</time>
      </trkpt>
      <trkpt lat="68.63264" lon="27.5815">
        <ele>143.85437</ele>
        <time>2014-03-17T14:00:04Z</time>
      </trkpt>
      <trkpt lat="68.63269" lon="27.58092">
        <ele>143.85437</ele>
        <time>2014-03-17T14:00:23Z</time>
      </trkpt>
      <trkpt lat="68.63268" lon="27.58029">
        <ele>143.85437</ele>
        <time>2014-03-17T14:00:43Z</time>
      </trkpt>
      <trkpt lat="68.63267" lon="27.57969">
        <ele>144.815796</ele>
        <time>2014-03-17T14:01:02Z</time>
      </trkpt>
      <trkpt lat="68.63276" lon="27.57923">
        <ele>145.296387</ele>
        <time>2014-03-17T14:01:19Z</time>
      </trkpt>
      <trkpt lat="68.633" lon="27.57919">
        <ele>143.373657</ele>
        <time>2014-03-17T14:01:40Z</time>
      </trkpt>
      <trkpt lat="68.63315" lon="27.57935">
        <ele>142.412476</ele>
        <time>2014-03-17T14:01:57Z</time>
      </trkpt>
      <trkpt lat="68.63329" lon="27.57929">
        <ele>141.45105</ele>
        <time>2014-03-17T14:02:11Z</time>
      </trkpt>
      <trkpt lat="68.63334" lon="27.57895">
        <ele>141.931763</ele>
        <time>2014-03-17T14:02:23Z</time>
      </trkpt>
      <trkpt lat="68.63334" lon="27.57883">
        <ele>143.373657</ele>
        <time>2014-03-17T14:02:27Z</time>
      </trkpt>
      <trkpt lat="68.6334" lon="27.57828">
        <ele>144.815796</ele>
        <time>2014-03-17T14:02:46Z</time>
      </trkpt>
      <trkpt lat="68.63359" lon="27.57822">
        <ele>144.335205</ele>
        <time>2014-03-17T14:03:06Z</time>
      </trkpt>
      <trkpt lat="68.6338" lon="27.5783">
        <ele>140.970459</ele>
        <time>2014-03-17T14:03:26Z</time>
      </trkpt>
      <trkpt lat="68.63389" lon="27.57822">
        <ele>141.45105</ele>
        <time>2014-03-17T14:03:42Z</time>
      </trkpt>
      <trkpt lat="68.63404" lon="27.57777">
        <ele>142.412476</ele>
        <time>2014-03-17T14:04:02Z</time>
      </trkpt>
      <trkpt lat="68.63426" lon="27.57762">
        <ele>140.489868</ele>
        <time>2014-03-17T14:04:21Z</time>
      </trkpt>
      <trkpt lat="68.63441" lon="27.5779">
        <ele>139.528442</ele>
        <time>2014-03-17T14:04:39Z</time>
      </trkpt>
      <trkpt lat="68.63467" lon="27.57813">
        <ele>138.567261</ele>
        <time>2014-03-17T14:05:01Z</time>
      </trkpt>
      <trkpt lat="68.6347" lon="27.57816">
        <ele>138.567261</ele>
        <time>2014-03-17T14:05:17Z</time>
      </trkpt>
      <trkpt lat="68.63478" lon="27.57828">
        <ele>139.047852</ele>
        <time>2014-03-17T14:05:36Z</time>
      </trkpt>
      <trkpt lat="68.6349" lon="27.57844">
        <ele>136.16394</ele>
        <time>2014-03-17T14:05:55Z</time>
      </trkpt>
      <trkpt lat="68.63496" lon="27.57852">
        <ele>136.16394</ele>
        <time>2014-03-17T14:06:17Z</time>
      </trkpt>
      <trkpt lat="68.63513" lon="27.57883">
        <ele>135.202515</ele>
        <time>2014-03-17T14:06:38Z</time>
      </trkpt>
      <trkpt lat="68.63521" lon="27.57903">
        <ele>135.202515</ele>
        <time>2014-03-17T14:06:48Z</time>
      </trkpt>
      <trkpt lat="68.6353" lon="27.57924">
        <ele>136.16394</ele>
        <time>2014-03-17T14:07:07Z</time>
      </trkpt>
      <trkpt lat="68.63535" lon="27.5794">
        <ele>137.125244</ele>
        <time>2014-03-17T14:07:25Z</time>
      </trkpt>
      <trkpt lat="68.63537" lon="27.57948">
        <ele>137.125244</ele>
        <time>2014-03-17T14:07:40Z</time>
      </trkpt>
      <trkpt lat="68.6354" lon="27.5795">
        <ele>137.125244</ele>
        <time>2014-03-17T14:07:46Z</time>
      </trkpt>
      <trkpt lat="68.63549" lon="27.57969">
        <ele>137.605835</ele>
        <time>2014-03-17T14:07:57Z</time>
      </trkpt>
      <trkpt lat="68.63575" lon="27.57987">
        <ele>138.086548</ele>
        <time>2014-03-17T14:08:18Z</time>
      </trkpt>
      <trkpt lat="68.63594" lon="27.58005">
        <ele>138.086548</ele>
        <time>2014-03-17T14:08:37Z</time>
      </trkpt>
      <trkpt lat="68.63613" lon="27.58043">
        <ele>137.605835</ele>
        <time>2014-03-17T14:08:58Z</time>
      </trkpt>
      <trkpt lat="68.63631" lon="27.58025">
        <ele>137.605835</ele>
        <time>2014-03-17T14:09:15Z</time>
      </trkpt>
      <trkpt lat="68.63644" lon="27.57971">
        <ele>137.605835</ele>
        <time>2014-03-17T14:09:35Z</time>
      </trkpt>
      <trkpt lat="68.63651" lon="27.57913">
        <ele>138.086548</ele>
        <time>2014-03-17T14:09:54Z</time>
      </trkpt>
      <trkpt lat="68.63659" lon="27.57828">
        <ele>137.125244</ele>
        <time>2014-03-17T14:10:20Z</time>
      </trkpt>
      <trkpt lat="68.63672" lon="27.57767">
        <ele>137.125244</ele>
        <time>2014-03-17T14:10:42Z</time>
      </trkpt>
      <trkpt lat="68.63689" lon="27.57708">
        <ele>136.644653</ele>
        <time>2014-03-17T14:11:05Z</time>
      </trkpt>
      <trkpt lat="68.63703" lon="27.5765">
        <ele>137.125244</ele>
        <time>2014-03-17T14:11:26Z</time>
      </trkpt>
      <trkpt lat="68.63706" lon="27.57639">
        <ele>138.086548</ele>
        <time>2014-03-17T14:11:30Z</time>
      </trkpt>
      <trkpt lat="68.63722" lon="27.57583">
        <ele>137.605835</ele>
        <time>2014-03-17T14:11:52Z</time>
      </trkpt>
      <trkpt lat="68.63739" lon="27.57517">
        <ele>137.605835</ele>
        <time>2014-03-17T14:12:16Z</time>
      </trkpt>
      <trkpt lat="68.63757" lon="27.57467">
        <ele>137.125244</ele>
        <time>2014-03-17T14:12:37Z</time>
      </trkpt>
      <trkpt lat="68.63765" lon="27.57446">
        <ele>137.125244</ele>
        <time>2014-03-17T14:12:51Z</time>
      </trkpt>
      <trkpt lat="68.63784" lon="27.57432">
        <ele>137.125244</ele>
        <time>2014-03-17T14:13:09Z</time>
      </trkpt>
      <trkpt lat="68.63792" lon="27.57426">
        <ele>136.644653</ele>
        <time>2014-03-17T14:13:17Z</time>
      </trkpt>
      <trkpt lat="68.63812" lon="27.57415">
        <ele>137.125244</ele>
        <time>2014-03-17T14:13:35Z</time>
      </trkpt>
      <trkpt lat="68.63835" lon="27.57413">
        <ele>137.125244</ele>
        <time>2014-03-17T14:13:54Z</time>
      </trkpt>
      <trkpt lat="68.6385" lon="27.57415">
        <ele>137.605835</ele>
        <time>2014-03-17T14:14:12Z</time>
      </trkpt>
      <trkpt lat="68.63853" lon="27.57411">
        <ele>137.125244</ele>
        <time>2014-03-17T14:14:31Z</time>
      </trkpt>
      <trkpt lat="68.63868" lon="27.57414">
        <ele>137.125244</ele>
        <time>2014-03-17T14:14:48Z</time>
      </trkpt>
      <trkpt lat="68.63871" lon="27.57414">
        <ele>137.605835</ele>
        <time>2014-03-17T14:15:05Z</time>
      </trkpt>
      <trkpt lat="68.63885" lon="27.57417">
        <ele>137.605835</ele>
        <time>2014-03-17T14:15:32Z</time>
      </trkpt>
      <trkpt lat="68.63887" lon="27.57418">
        <ele>137.605835</ele>
        <time>2014-03-17T14:15:34Z</time>
      </trkpt>
      <trkpt lat="68.63908" lon="27.57415">
        <ele>137.605835</ele>
        <time>2014-03-17T14:15:52Z</time>
      </trkpt>
      <trkpt lat="68.63913" lon="27.57412">
        <ele>137.605835</ele>
        <time>2014-03-17T14:15:56Z</time>
      </trkpt>
      <trkpt lat="68.63929" lon="27.57404">
        <ele>138.086548</ele>
        <time>2014-03-17T14:16:10Z</time>
      </trkpt>
      <trkpt lat="68.63948" lon="27.57406">
        <ele>137.125244</ele>
        <time>2014-03-17T14:16:27Z</time>
      </trkpt>
      <trkpt lat="68.63964" lon="27.57438">
        <ele>137.125244</ele>
        <time>2014-03-17T14:16:45Z</time>
      </trkpt>
      <trkpt lat="68.6397" lon="27.57448">
        <ele>137.125244</ele>
        <time>2014-03-17T14:16:59Z</time>
      </trkpt>
      <trkpt lat="68.63983" lon="27.57461">
        <ele>137.125244</ele>
        <time>2014-03-17T14:17:26Z</time>
      </trkpt>
      <trkpt lat="68.64001" lon="27.57418">
        <ele>136.16394</ele>
        <time>2014-03-17T14:17:46Z</time>
      </trkpt>
      <trkpt lat="68.6402" lon="27.57368">
        <ele>135.683105</ele>
        <time>2014-03-17T14:18:08Z</time>
      </trkpt>
      <trkpt lat="68.64039" lon="27.57315">
        <ele>133.279907</ele>
        <time>2014-03-17T14:18:30Z</time>
      </trkpt>
      <trkpt lat="68.64045" lon="27.57251">
        <ele>133.279907</ele>
        <time>2014-03-17T14:18:49Z</time>
      </trkpt>
      <trkpt lat="68.6403" lon="27.57178">
        <ele>131.837891</ele>
        <time>2014-03-17T14:19:13Z</time>
      </trkpt>
      <trkpt lat="68.64022" lon="27.57144">
        <ele>133.279907</ele>
        <time>2014-03-17T14:19:31Z</time>
      </trkpt>
      <trkpt lat="68.6402" lon="27.57132">
        <ele>132.799316</ele>
        <time>2014-03-17T14:19:36Z</time>
      </trkpt>
      <trkpt lat="68.64" lon="27.5709">
        <ele>134.721924</ele>
        <time>2014-03-17T14:19:58Z</time>
      </trkpt>
      <trkpt lat="68.63978" lon="27.57071">
        <ele>136.644653</ele>
        <time>2014-03-17T14:20:18Z</time>
      </trkpt>
      <trkpt lat="68.63954" lon="27.57054">
        <ele>137.125244</ele>
        <time>2014-03-17T14:20:39Z</time>
      </trkpt>
      <trkpt lat="68.63933" lon="27.57035">
        <ele>138.086548</ele>
        <time>2014-03-17T14:20:58Z</time>
      </trkpt>
      <trkpt lat="68.63912" lon="27.57011">
        <ele>137.605835</ele>
        <time>2014-03-17T14:21:18Z</time>
      </trkpt>
      <trkpt lat="68.63894" lon="27.56996">
        <ele>137.605835</ele>
        <time>2014-03-17T14:21:34Z</time>
      </trkpt>
      <trkpt lat="68.63877" lon="27.5697">
        <ele>138.086548</ele>
        <time>2014-03-17T14:21:50Z</time>
      </trkpt>
      <trkpt lat="68.63877" lon="27.56955">
        <ele>138.086548</ele>
        <time>2014-03-17T14:21:55Z</time>
      </trkpt>
      <trkpt lat="68.63886" lon="27.56905">
        <ele>138.086548</ele>
        <time>2014-03-17T14:22:16Z</time>
      </trkpt>
      <trkpt lat="68.63892" lon="27.56885">
        <ele>138.086548</ele>
        <time>2014-03-17T14:22:30Z</time>
      </trkpt>
      <trkpt lat="68.63906" lon="27.5685">
        <ele>138.086548</ele>
        <time>2014-03-17T14:22:48Z</time>
      </trkpt>
      <trkpt lat="68.63923" lon="27.5681">
        <ele>137.125244</ele>
        <time>2014-03-17T14:23:07Z</time>
      </trkpt>
      <trkpt lat="68.63944" lon="27.56765">
        <ele>137.125244</ele>
        <time>2014-03-17T14:23:29Z</time>
      </trkpt>
      <trkpt lat="68.63963" lon="27.56722">
        <ele>136.644653</ele>
        <time>2014-03-17T14:23:49Z</time>
      </trkpt>
      <trkpt lat="68.63986" lon="27.56672">
        <ele>137.125244</ele>
        <time>2014-03-17T14:24:14Z</time>
      </trkpt>
      <trkpt lat="68.64004" lon="27.56625">
        <ele>136.644653</ele>
        <time>2014-03-17T14:24:35Z</time>
      </trkpt>
      <trkpt lat="68.64016" lon="27.56588">
        <ele>137.125244</ele>
        <time>2014-03-17T14:24:54Z</time>
      </trkpt>
      <trkpt lat="68.64027" lon="27.56561">
        <ele>137.605835</ele>
        <time>2014-03-17T14:25:10Z</time>
      </trkpt>
      <trkpt lat="68.64048" lon="27.5651">
        <ele>137.125244</ele>
        <time>2014-03-17T14:25:33Z</time>
      </trkpt>
      <trkpt lat="68.64064" lon="27.56473">
        <ele>137.605835</ele>
        <time>2014-03-17T14:25:50Z</time>
      </trkpt>
      <trkpt lat="68.64086" lon="27.5643">
        <ele>136.16394</ele>
        <time>2014-03-17T14:26:12Z</time>
      </trkpt>
      <trkpt lat="68.64109" lon="27.5639">
        <ele>133.760498</ele>
        <time>2014-03-17T14:26:35Z</time>
      </trkpt>
      <trkpt lat="68.64127" lon="27.5636">
        <ele>133.279907</ele>
        <time>2014-03-17T14:26:53Z</time>
      </trkpt>
      <trkpt lat="68.64146" lon="27.56311">
        <ele>131.3573</ele>
        <time>2014-03-17T14:27:14Z</time>
      </trkpt>
      <trkpt lat="68.64162" lon="27.56262">
        <ele>129.915283</ele>
        <time>2014-03-17T14:27:34Z</time>
      </trkpt>
      <trkpt lat="68.6418" lon="27.56194">
        <ele>127.992554</ele>
        <time>2014-03-17T14:27:58Z</time>
      </trkpt>
      <trkpt lat="68.64199" lon="27.56133">
        <ele>127.511963</ele>
        <time>2014-03-17T14:28:21Z</time>
      </trkpt>
      <trkpt lat="68.64211" lon="27.56093">
        <ele>127.511963</ele>
        <time>2014-03-17T14:28:39Z</time>
      </trkpt>
      <trkpt lat="68.64226" lon="27.5604">
        <ele>127.031372</ele>
        <time>2014-03-17T14:28:59Z</time>
      </trkpt>
      <trkpt lat="68.64241" lon="27.55986">
        <ele>127.511963</ele>
        <time>2014-03-17T14:29:19Z</time>
      </trkpt>
      <trkpt lat="68.6426" lon="27.55918">
        <ele>127.031372</ele>
        <time>2014-03-17T14:29:43Z</time>
      </trkpt>
      <trkpt lat="68.64281" lon="27.5585">
        <ele>126.069946</ele>
        <time>2014-03-17T14:30:07Z</time>
      </trkpt>
      <trkpt lat="68.64291" lon="27.5581">
        <ele>125.589355</ele>
        <time>2014-03-17T14:30:25Z</time>
      </trkpt>
      <trkpt lat="68.64306" lon="27.55752">
        <ele>126.069946</ele>
        <time>2014-03-17T14:30:46Z</time>
      </trkpt>
      <trkpt lat="68.64325" lon="27.55684">
        <ele>126.550659</ele>
        <time>2014-03-17T14:31:10Z</time>
      </trkpt>
      <trkpt lat="68.64344" lon="27.55624">
        <ele>127.031372</ele>
        <time>2014-03-17T14:31:32Z</time>
      </trkpt>
      <trkpt lat="68.6435" lon="27.55594">
        <ele>127.031372</ele>
        <time>2014-03-17T14:31:46Z</time>
      </trkpt>
      <trkpt lat="68.64365" lon="27.55537">
        <ele>127.992554</ele>
        <time>2014-03-17T14:32:07Z</time>
      </trkpt>
      <trkpt lat="68.64383" lon="27.55476">
        <ele>127.992554</ele>
        <time>2014-03-17T14:32:30Z</time>
      </trkpt>
      <trkpt lat="68.64398" lon="27.55424">
        <ele>128.473389</ele>
        <time>2014-03-17T14:32:50Z</time>
      </trkpt>
      <trkpt lat="68.64415" lon="27.55369">
        <ele>129.434692</ele>
        <time>2014-03-17T14:33:11Z</time>
      </trkpt>
      <trkpt lat="68.6443" lon="27.55307">
        <ele>128.473389</ele>
        <time>2014-03-17T14:33:32Z</time>
      </trkpt>
      <trkpt lat="68.64451" lon="27.55242">
        <ele>128.473389</ele>
        <time>2014-03-17T14:33:56Z</time>
      </trkpt>
      <trkpt lat="68.64468" lon="27.55183">
        <ele>128.473389</ele>
        <time>2014-03-17T14:34:18Z</time>
      </trkpt>
      <trkpt lat="68.64483" lon="27.55131">
        <ele>128.954102</ele>
        <time>2014-03-17T14:34:39Z</time>
      </trkpt>
      <trkpt lat="68.64495" lon="27.55085">
        <ele>128.473389</ele>
        <time>2014-03-17T14:35:00Z</time>
      </trkpt>
      <trkpt lat="68.64499" lon="27.5508">
        <ele>129.434692</ele>
        <time>2014-03-17T14:35:13Z</time>
      </trkpt>
      <trkpt lat="68.64503" lon="27.55064">
        <ele>127.992554</ele>
        <time>2014-03-17T14:35:38Z</time>
      </trkpt>
      <trkpt lat="68.64516" lon="27.5502">
        <ele>128.473389</ele>
        <time>2014-03-17T14:35:56Z</time>
      </trkpt>
      <trkpt lat="68.64528" lon="27.54968">
        <ele>128.954102</ele>
        <time>2014-03-17T14:36:16Z</time>
      </trkpt>
      <trkpt lat="68.64544" lon="27.54912">
        <ele>128.473389</ele>
        <time>2014-03-17T14:36:36Z</time>
      </trkpt>
      <trkpt lat="68.64559" lon="27.5486">
        <ele>128.473389</ele>
        <time>2014-03-17T14:36:55Z</time>
      </trkpt>
      <trkpt lat="68.64578" lon="27.54792">
        <ele>127.031372</ele>
        <time>2014-03-17T14:37:20Z</time>
      </trkpt>
      <trkpt lat="68.64595" lon="27.54733">
        <ele>127.992554</ele>
        <time>2014-03-17T14:37:42Z</time>
      </trkpt>
      <trkpt lat="68.64608" lon="27.54679">
        <ele>127.992554</ele>
        <time>2014-03-17T14:38:03Z</time>
      </trkpt>
      <trkpt lat="68.64626" lon="27.54615">
        <ele>127.992554</ele>
        <time>2014-03-17T14:38:26Z</time>
      </trkpt>
      <trkpt lat="68.64643" lon="27.5455">
        <ele>127.511963</ele>
        <time>2014-03-17T14:38:49Z</time>
      </trkpt>
      <trkpt lat="68.64654" lon="27.54485">
        <ele>127.992554</ele>
        <time>2014-03-17T14:39:11Z</time>
      </trkpt>
      <trkpt lat="68.64663" lon="27.54425">
        <ele>128.473389</ele>
        <time>2014-03-17T14:39:31Z</time>
      </trkpt>
      <trkpt lat="68.64665" lon="27.54419">
        <ele>128.473389</ele>
        <time>2014-03-17T14:39:35Z</time>
      </trkpt>
      <trkpt lat="68.64668" lon="27.54414">
        <ele>129.434692</ele>
        <time>2014-03-17T14:39:39Z</time>
      </trkpt>
      <trkpt lat="68.64675" lon="27.5441">
        <ele>128.473389</ele>
        <time>2014-03-17T14:39:45Z</time>
      </trkpt>
      <trkpt lat="68.64677" lon="27.54404">
        <ele>128.954102</ele>
        <time>2014-03-17T14:40:02Z</time>
      </trkpt>
      <trkpt lat="68.64678" lon="27.54398">
        <ele>128.954102</ele>
        <time>2014-03-17T14:40:15Z</time>
      </trkpt>
      <trkpt lat="68.64679" lon="27.54393">
        <ele>128.954102</ele>
        <time>2014-03-17T14:40:25Z</time>
      </trkpt>
      <trkpt lat="68.64682" lon="27.54344">
        <ele>128.473389</ele>
        <time>2014-03-17T14:40:40Z</time>
      </trkpt>
      <trkpt lat="68.64708" lon="27.54349">
        <ele>128.954102</ele>
        <time>2014-03-17T14:41:03Z</time>
      </trkpt>
      <trkpt lat="68.64726" lon="27.54353">
        <ele>128.954102</ele>
        <time>2014-03-17T14:41:19Z</time>
      </trkpt>
      <trkpt lat="68.64753" lon="27.54355">
        <ele>128.954102</ele>
        <time>2014-03-17T14:41:42Z</time>
      </trkpt>
      <trkpt lat="68.64785" lon="27.54361">
        <ele>128.954102</ele>
        <time>2014-03-17T14:42:07Z</time>
      </trkpt>
      <trkpt lat="68.64807" lon="27.54366">
        <ele>129.434692</ele>
        <time>2014-03-17T14:42:24Z</time>
      </trkpt>
      <trkpt lat="68.64828" lon="27.54366">
        <ele>129.915283</ele>
        <time>2014-03-17T14:42:45Z</time>
      </trkpt>
      <trkpt lat="68.6485" lon="27.54365">
        <ele>129.915283</ele>
        <time>2014-03-17T14:43:02Z</time>
      </trkpt>
      <trkpt lat="68.6488" lon="27.54367">
        <ele>129.434692</ele>
        <time>2014-03-17T14:43:26Z</time>
      </trkpt>
      <trkpt lat="68.64904" lon="27.54368">
        <ele>129.434692</ele>
        <time>2014-03-17T14:43:45Z</time>
      </trkpt>
      <trkpt lat="68.64926" lon="27.54368">
        <ele>129.434692</ele>
        <time>2014-03-17T14:44:05Z</time>
      </trkpt>
      <trkpt lat="68.64943" lon="27.54366">
        <ele>129.915283</ele>
        <time>2014-03-17T14:44:22Z</time>
      </trkpt>
      <trkpt lat="68.64968" lon="27.54361">
        <ele>130.876709</ele>
        <time>2014-03-17T14:44:42Z</time>
      </trkpt>
      <trkpt lat="68.64995" lon="27.54358">
        <ele>129.915283</ele>
        <time>2014-03-17T14:45:04Z</time>
      </trkpt>
      <trkpt lat="68.65023" lon="27.54354">
        <ele>130.395996</ele>
        <time>2014-03-17T14:45:27Z</time>
      </trkpt>
      <trkpt lat="68.65027" lon="27.54349">
        <ele>129.915283</ele>
        <time>2014-03-17T14:45:31Z</time>
      </trkpt>
      <trkpt lat="68.65028" lon="27.54328">
        <ele>129.915283</ele>
        <time>2014-03-17T14:45:43Z</time>
      </trkpt>
      <trkpt lat="68.65027" lon="27.54314">
        <ele>129.915283</ele>
        <time>2014-03-17T14:45:49Z</time>
      </trkpt>
      <trkpt lat="68.65026" lon="27.54292">
        <ele>130.876709</ele>
        <time>2014-03-17T14:45:58Z</time>
      </trkpt>
    </trkseg>
  </trk>
</gpx>